createdAt,value
2018-04-02T00:00:58.070Z,141.40
2018-04-02T00:01:58.105Z,143.90
2018-04-02T00:02:58.060Z,141.80
2018-04-02T00:03:58.064Z,146.50
2018-04-02T00:04:58.074Z,144.20
2018-04-02T00:05:58.066Z,143.00
2018-04-02T00:06:58.067Z,140.90
2018-04-02T00:07:58.060Z,143.80
2018-04-02T00:08:58.056Z,150.30
2018-04-02T00:09:58.060Z,152.90
2018-04-02T00:10:58.069Z,152.30
2018-04-02T00:11:58.070Z,153.90
2018-04-02T00:12:58.066Z,153.90
2018-04-02T00:13:58.068Z,152.90
2018-04-02T00:14:58.074Z,152.40
2018-04-02T00:15:58.062Z,153.80
2018-04-02T00:16:58.055Z,153.80
2018-04-02T00:17:58.166Z,151.80
2018-04-02T00:18:58.066Z,154.40
2018-04-02T00:19:58.064Z,153.00
2018-04-02T00:20:58.064Z,150.60
2018-04-02T00:21:58.051Z,153.50
2018-04-02T00:22:58.060Z,159.00
2018-04-02T00:23:58.111Z,156.60
2018-04-02T00:24:58.064Z,156.50
2018-04-02T00:25:58.069Z,154.30
2018-04-02T00:26:58.064Z,157.80
2018-04-02T00:27:58.062Z,154.70
2018-04-02T00:28:58.060Z,153.40
2018-04-02T00:29:58.065Z,155.40
2018-04-02T00:30:58.148Z,155.30
2018-04-02T00:31:58.055Z,157.30
2018-04-02T00:32:58.055Z,154.50
2018-04-02T00:33:58.063Z,153.20
2018-04-02T00:34:58.051Z,151.90
2018-04-02T00:35:58.060Z,158.40
2018-04-02T00:36:58.057Z,156.60
2018-04-02T00:37:58.066Z,156.50
2018-04-02T00:38:58.056Z,156.50
2018-04-02T00:39:58.060Z,159.10
2018-04-02T00:40:58.060Z,159.30
2018-04-02T00:41:58.051Z,155.90
2018-04-02T00:42:58.050Z,158.10
2018-04-02T00:43:58.058Z,153.70
2018-04-02T00:44:58.060Z,152.40
2018-04-02T00:45:58.046Z,152.10
2018-04-02T00:46:58.056Z,152.70
2018-04-02T00:47:58.057Z,158.70
2018-04-02T00:48:58.106Z,154.30
2018-04-02T00:49:58.050Z,157.30
2018-04-02T00:50:58.051Z,154.80
2018-04-02T00:51:58.053Z,157.40
2018-04-02T00:52:58.056Z,156.80
2018-04-02T00:53:58.056Z,156.70
2018-04-02T00:54:58.053Z,161.90
2018-04-02T00:55:58.056Z,159.70
2018-04-02T00:56:58.043Z,156.40
2018-04-02T00:57:58.047Z,165.80
2018-04-02T00:58:58.042Z,156.50
2018-04-02T00:59:58.051Z,153.10
2018-04-02T01:00:58.038Z,156.20
2018-04-02T01:01:58.159Z,154.70
2018-04-02T01:02:58.056Z,156.70
2018-04-02T01:03:58.052Z,160.90
2018-04-02T01:04:58.042Z,163.50
2018-04-02T01:05:58.045Z,160.50
2018-04-02T01:06:58.049Z,157.30
2018-04-02T01:07:58.051Z,161.60
2018-04-02T01:08:58.044Z,157.70
2018-04-02T01:09:58.034Z,160.30
2018-04-02T01:10:58.043Z,161.30
2018-04-02T01:11:58.054Z,159.90
2018-04-02T01:12:58.041Z,162.90
2018-04-02T01:13:58.042Z,159.40
2018-04-02T01:14:58.050Z,157.20
2018-04-02T01:15:58.044Z,163.20
2018-04-02T01:16:58.049Z,159.00
2018-04-02T01:17:58.043Z,160.50
2018-04-02T01:18:58.035Z,166.90
2018-04-02T01:19:58.050Z,165.90
2018-04-02T01:20:58.056Z,159.10
2018-04-02T01:21:58.046Z,155.40
2018-04-02T01:22:58.036Z,156.10
2018-04-02T01:23:58.051Z,154.90
2018-04-02T01:24:58.043Z,157.60
2018-04-02T01:25:58.047Z,153.30
2018-04-02T01:26:58.041Z,154.10
2018-04-02T01:27:58.099Z,158.00
2018-04-02T01:28:58.245Z,153.70
2018-04-02T01:29:58.035Z,154.20
2018-04-02T01:30:58.075Z,154.10
2018-04-02T01:31:58.038Z,155.70
2018-04-02T01:32:58.033Z,149.90
2018-04-02T01:33:58.036Z,158.30
2018-04-02T01:34:58.076Z,158.40
2018-04-02T01:35:58.032Z,161.50
2018-04-02T01:36:58.035Z,158.30
2018-04-02T01:37:58.035Z,162.30
2018-04-02T01:38:58.032Z,159.30
2018-04-02T01:39:58.034Z,158.30
2018-04-02T01:40:58.040Z,157.20
2018-04-02T01:41:58.031Z,160.20
2018-04-02T01:42:58.035Z,158.00
2018-04-02T01:43:58.034Z,156.40
2018-04-02T01:44:58.026Z,156.90
2018-04-02T01:45:58.086Z,154.30
2018-04-02T01:46:58.031Z,155.60
2018-04-02T01:47:58.029Z,153.90
2018-04-02T01:48:58.021Z,157.10
2018-04-02T01:49:58.025Z,155.40
2018-04-02T01:50:58.029Z,154.80
2018-04-02T01:51:58.029Z,156.30
2018-04-02T01:52:58.030Z,158.60
2018-04-02T01:53:58.029Z,157.30
2018-04-02T01:54:58.030Z,157.00
2018-04-02T01:55:58.026Z,164.30
2018-04-02T01:56:58.066Z,157.60
2018-04-02T01:57:58.022Z,161.40
2018-04-02T01:58:58.616Z,158.60
2018-04-02T01:59:58.010Z,154.80
2018-04-02T02:00:58.025Z,157.70
2018-04-02T02:01:58.029Z,150.70
2018-04-02T02:02:58.016Z,152.50
2018-04-02T02:03:58.011Z,154.50
2018-04-02T02:04:58.019Z,154.00
2018-04-02T02:05:58.026Z,153.60
2018-04-02T02:06:58.019Z,146.60
2018-04-02T02:07:58.032Z,151.20
2018-04-02T02:08:58.012Z,150.30
2018-04-02T02:09:58.025Z,152.90
2018-04-02T02:10:58.018Z,150.60
2018-04-02T02:11:58.039Z,152.00
2018-04-02T02:12:58.027Z,150.20
2018-04-02T02:13:58.025Z,148.80
2018-04-02T02:14:58.038Z,142.50
2018-04-02T02:15:58.014Z,138.20
2018-04-02T02:16:58.015Z,135.00
2018-04-02T02:17:58.013Z,133.60
2018-04-02T02:18:58.005Z,135.20
2018-04-02T02:19:58.010Z,134.20
2018-04-02T02:20:58.021Z,127.60
2018-04-02T02:21:58.007Z,123.90
2018-04-02T02:22:58.010Z,123.50
2018-04-02T02:23:58.003Z,122.50
2018-04-02T02:24:58.009Z,121.50
2018-04-02T02:25:58.009Z,116.80
2018-04-02T02:26:58.010Z,116.90
2018-04-02T02:27:58.022Z,119.70
2018-04-02T02:28:58.004Z,124.20
2018-04-02T02:29:58.135Z,121.30
2018-04-02T02:30:58.010Z,125.40
2018-04-02T02:31:58.005Z,124.80
2018-04-02T02:32:58.014Z,122.30
2018-04-02T02:33:58.006Z,121.60
2018-04-02T02:34:58.055Z,120.80
2018-04-02T02:35:58.002Z,120.80
2018-04-02T02:36:58.034Z,122.60
2018-04-02T02:37:58.009Z,121.90
2018-04-02T02:38:58.007Z,119.90
2018-04-02T02:39:58.008Z,118.80
2018-04-02T02:40:58.007Z,121.40
2018-04-02T02:41:58.009Z,119.70
2018-04-02T02:42:58.622Z,121.90
2018-04-02T02:43:58.007Z,126.40
2018-04-02T02:44:58.005Z,119.70
2018-04-02T02:45:58.003Z,115.40
2018-04-02T02:46:58.004Z,116.60
2018-04-02T02:47:58.002Z,112.90
2018-04-02T02:48:58.000Z,113.70
2018-04-02T02:49:58.005Z,119.70
2018-04-02T02:50:58.009Z,117.70
2018-04-02T02:51:58.005Z,115.60
2018-04-02T02:52:57.999Z,117.40
2018-04-02T02:53:57.997Z,121.00
2018-04-02T02:54:58.000Z,119.40
2018-04-02T02:55:58.045Z,122.50
2018-04-02T02:56:58.002Z,126.00
2018-04-02T02:57:57.988Z,126.10
2018-04-02T02:58:58.001Z,126.70
2018-04-02T02:59:58.003Z,125.00
2018-04-02T03:00:58.009Z,129.30
2018-04-02T03:01:58.002Z,128.80
2018-04-02T03:02:57.994Z,131.10
2018-04-02T03:03:58.028Z,128.50
2018-04-02T03:04:57.994Z,125.60
2018-04-02T03:05:58.001Z,122.80
2018-04-02T03:06:58.009Z,122.60
2018-04-02T03:07:57.997Z,122.60
2018-04-02T03:08:58.007Z,118.20
2018-04-02T03:09:57.989Z,115.30
2018-04-02T03:10:58.003Z,112.20
2018-04-02T03:11:57.999Z,113.70
2018-04-02T03:12:57.995Z,118.80
2018-04-02T03:13:57.982Z,121.10
2018-04-02T03:14:57.983Z,121.10
2018-04-02T03:15:57.992Z,121.00
2018-04-02T03:16:58.000Z,120.70
2018-04-02T03:17:57.986Z,123.50
2018-04-02T03:18:57.984Z,126.00
2018-04-02T03:19:57.991Z,122.30
2018-04-02T03:20:57.994Z,121.40
2018-04-02T03:21:58.018Z,120.30
2018-04-02T03:22:57.989Z,120.90
2018-04-02T03:23:57.988Z,122.40
2018-04-02T03:24:57.981Z,126.80
2018-04-02T03:25:57.983Z,128.20
2018-04-02T03:26:58.630Z,136.90
2018-04-02T03:27:57.988Z,138.40
2018-04-02T03:28:57.986Z,140.80
2018-04-02T03:29:57.988Z,140.00
2018-04-02T03:30:58.069Z,137.50
2018-04-02T03:31:57.983Z,138.00
2018-04-02T03:32:57.982Z,135.20
2018-04-02T03:33:57.980Z,137.60
2018-04-02T03:34:57.979Z,138.60
2018-04-02T03:35:57.995Z,135.60
2018-04-02T03:36:57.988Z,136.90
2018-04-02T03:37:57.996Z,138.20
2018-04-02T03:38:57.986Z,136.90
2018-04-02T03:39:58.050Z,132.60
2018-04-02T03:40:58.003Z,136.10
2018-04-02T03:41:57.987Z,126.30
2018-04-02T03:42:57.984Z,128.00
2018-04-02T03:43:57.983Z,130.10
2018-04-02T03:44:57.979Z,126.80
2018-04-02T03:45:57.980Z,126.30
2018-04-02T03:46:57.985Z,129.90
2018-04-02T03:47:57.979Z,125.70
2018-04-02T03:48:57.972Z,127.20
2018-04-02T03:49:57.978Z,129.40
2018-04-02T03:50:58.007Z,128.10
2018-04-02T03:51:57.983Z,129.90
2018-04-02T03:52:58.030Z,127.80
2018-04-02T03:53:57.972Z,125.10
2018-04-02T03:54:57.986Z,127.70
2018-04-02T03:55:57.978Z,125.40
2018-04-02T03:56:57.980Z,124.20
2018-04-02T03:57:57.975Z,124.20
2018-04-02T03:58:57.971Z,123.20
2018-04-02T03:59:57.973Z,124.50
2018-04-02T04:00:57.975Z,121.80
2018-04-02T04:01:57.980Z,124.80
2018-04-02T04:02:57.964Z,119.90
2018-04-02T04:03:58.638Z,124.00
2018-04-02T04:04:57.977Z,124.30
2018-04-02T04:05:57.966Z,128.20
2018-04-02T04:06:57.971Z,127.50
2018-04-02T04:07:57.981Z,126.90
2018-04-02T04:08:57.963Z,129.70
2018-04-02T04:09:57.976Z,127.00
2018-04-02T04:10:58.643Z,127.00
2018-04-02T04:11:57.965Z,119.00
2018-04-02T04:12:57.968Z,123.40
2018-04-02T04:13:57.963Z,123.20
2018-04-02T04:14:57.959Z,122.50
2018-04-02T04:15:57.961Z,123.40
2018-04-02T04:16:57.965Z,120.90
2018-04-02T04:17:57.985Z,121.80
2018-04-02T04:18:57.967Z,122.90
2018-04-02T04:19:57.974Z,118.60
2018-04-02T04:20:57.994Z,116.80
2018-04-02T04:21:58.640Z,108.30
2018-04-02T04:22:57.960Z,108.00
2018-04-02T04:23:57.959Z,105.50
2018-04-02T04:24:57.950Z,107.60
2018-04-02T04:25:57.948Z,107.00
2018-04-02T04:26:57.960Z,112.40
2018-04-02T04:27:57.949Z,115.00
2018-04-02T04:28:57.955Z,116.70
2018-04-02T04:29:57.952Z,115.30
2018-04-02T04:30:57.956Z,117.20
2018-04-02T04:31:57.950Z,120.10
2018-04-02T04:32:57.948Z,115.80
2018-04-02T04:33:57.956Z,110.90
2018-04-02T04:34:57.959Z,111.70
2018-04-02T04:35:57.950Z,100.10
2018-04-02T04:36:58.646Z,101.20
2018-04-02T04:37:57.960Z,99.60
2018-04-02T04:38:57.953Z,96.90
2018-04-02T04:39:57.972Z,98.30
2018-04-02T04:40:57.955Z,96.60
2018-04-02T04:41:57.957Z,96.10
2018-04-02T04:42:57.958Z,94.80
2018-04-02T04:43:57.949Z,97.10
2018-04-02T04:44:57.943Z,98.50
2018-04-02T04:45:57.938Z,97.70
2018-04-02T04:46:57.957Z,95.70
2018-04-02T04:47:57.944Z,95.90
2018-04-02T04:48:57.950Z,93.10
2018-04-02T04:49:57.961Z,94.40
2018-04-02T04:50:57.946Z,96.40
2018-04-02T04:51:57.954Z,98.00
2018-04-02T04:52:57.944Z,98.20
2018-04-02T04:53:57.940Z,100.80
2018-04-02T04:54:57.941Z,99.60
2018-04-02T04:55:57.942Z,101.40
2018-04-02T04:56:57.943Z,107.70
2018-04-02T04:57:57.936Z,110.10
2018-04-02T04:58:57.944Z,110.10
2018-04-02T04:59:57.938Z,109.30
2018-04-02T05:00:57.928Z,111.60
2018-04-02T05:01:57.936Z,110.40
2018-04-02T05:02:57.957Z,109.20
2018-04-02T05:03:57.943Z,109.70
2018-04-02T05:04:57.967Z,114.80
2018-04-02T05:05:57.979Z,113.30
2018-04-02T05:06:57.941Z,113.60
2018-04-02T05:07:57.993Z,118.10
2018-04-02T05:08:57.925Z,114.70
2018-04-02T05:09:57.942Z,117.40
2018-04-02T05:10:57.934Z,118.40
2018-04-02T05:11:57.931Z,118.10
2018-04-02T05:12:57.932Z,120.40
2018-04-02T05:13:57.931Z,117.00
2018-04-02T05:14:57.932Z,121.80
2018-04-02T05:15:57.924Z,119.70
2018-04-02T05:16:57.929Z,123.40
2018-04-02T05:17:57.932Z,122.70
2018-04-02T05:18:57.928Z,130.30
2018-04-02T05:19:57.931Z,129.20
2018-04-02T05:20:58.014Z,129.50
2018-04-02T05:21:57.927Z,129.30
2018-04-02T05:22:57.926Z,129.50
2018-04-02T05:23:57.930Z,129.60
2018-04-02T05:24:57.918Z,132.20
2018-04-02T05:25:57.936Z,132.50
2018-04-02T05:26:57.908Z,130.30
2018-04-02T05:27:57.926Z,132.00
2018-04-02T05:28:57.915Z,130.80
2018-04-02T05:29:57.924Z,132.40
2018-04-02T05:30:57.949Z,131.00
2018-04-02T05:31:57.922Z,134.50
2018-04-02T05:32:57.933Z,133.30
2018-04-02T05:33:57.920Z,136.90
2018-04-02T05:34:57.935Z,132.60
2018-04-02T05:35:57.916Z,133.60
2018-04-02T05:36:57.936Z,131.50
2018-04-02T05:37:57.915Z,135.10
2018-04-02T05:38:57.964Z,135.70
2018-04-02T05:39:57.919Z,136.60
2018-04-02T05:40:57.926Z,135.80
2018-04-02T05:41:57.909Z,136.20
2018-04-02T05:42:57.913Z,136.40
2018-04-02T05:43:57.908Z,134.70
2018-04-02T05:44:57.907Z,133.80
2018-04-02T05:45:57.904Z,134.80
2018-04-02T05:46:57.922Z,135.90
2018-04-02T05:47:57.900Z,138.60
2018-04-02T05:48:57.918Z,137.20
2018-04-02T05:49:57.909Z,136.00
2018-04-02T05:50:57.923Z,132.90
2018-04-02T05:51:57.903Z,135.80
2018-04-02T05:52:57.901Z,135.50
2018-04-02T05:53:57.908Z,134.10
2018-04-02T05:54:57.903Z,135.00
2018-04-02T05:55:57.908Z,133.00
2018-04-02T05:56:57.899Z,137.00
2018-04-02T05:57:57.902Z,137.70
2018-04-02T05:58:57.903Z,132.90
2018-04-02T05:59:57.964Z,137.20
2018-04-02T06:00:57.895Z,133.50
2018-04-02T06:01:57.924Z,132.90
2018-04-02T06:02:57.906Z,134.40
2018-04-02T06:03:57.902Z,137.10
2018-04-02T06:04:57.953Z,136.40
2018-04-02T06:05:57.900Z,137.50
2018-04-02T06:06:57.887Z,132.60
2018-04-02T06:07:57.893Z,136.80
2018-04-02T06:08:57.899Z,132.00
2018-04-02T06:09:57.888Z,132.10
2018-04-02T06:10:57.893Z,133.30
2018-04-02T06:11:57.895Z,131.10
2018-04-02T06:12:57.884Z,131.80
2018-04-02T06:13:57.891Z,133.60
2018-04-02T06:14:57.882Z,130.90
2018-04-02T06:15:57.898Z,127.00
2018-04-02T06:16:57.885Z,130.30
2018-04-02T06:17:58.013Z,129.20
2018-04-02T06:18:57.879Z,133.50
2018-04-02T06:19:57.884Z,130.70
2018-04-02T06:20:57.887Z,133.70
2018-04-02T06:21:57.892Z,131.40
2018-04-02T06:22:57.879Z,131.10
2018-04-02T06:23:57.885Z,130.90
2018-04-02T06:24:57.889Z,134.10
2018-04-02T06:25:57.884Z,128.20
2018-04-02T06:26:57.891Z,126.30
2018-04-02T06:27:57.876Z,127.70
2018-04-02T06:28:57.896Z,126.20
2018-04-02T06:29:57.892Z,127.10
2018-04-02T06:30:58.669Z,128.60
2018-04-02T06:31:57.884Z,128.20
2018-04-02T06:32:57.882Z,127.60
2018-04-02T06:33:57.884Z,128.80
2018-04-02T06:34:57.887Z,129.90
2018-04-02T06:35:57.888Z,130.30
2018-04-02T06:36:57.930Z,132.90
2018-04-02T06:37:57.875Z,132.00
2018-04-02T06:38:57.876Z,129.90
2018-04-02T06:39:57.882Z,130.20
2018-04-02T06:40:57.887Z,132.10
2018-04-02T06:41:57.880Z,130.70
2018-04-02T06:42:57.883Z,128.30
2018-04-02T06:43:57.886Z,127.50
2018-04-02T06:44:57.877Z,124.70
2018-04-02T06:45:57.885Z,123.10
2018-04-02T06:46:57.885Z,123.90
2018-04-02T06:47:57.884Z,122.50
2018-04-02T06:48:57.881Z,123.10
2018-04-02T06:49:57.900Z,123.70
2018-04-02T06:50:57.884Z,122.10
2018-04-02T06:51:57.888Z,124.30
2018-04-02T06:52:57.888Z,121.90
2018-04-02T06:53:57.890Z,124.80
2018-04-02T06:54:57.880Z,121.60
2018-04-02T06:55:57.871Z,120.30
2018-04-02T06:56:57.874Z,119.30
2018-04-02T06:57:57.888Z,118.20
2018-04-02T06:58:57.880Z,118.50
2018-04-02T06:59:57.884Z,118.70
2018-04-02T07:00:57.880Z,120.30
2018-04-02T07:01:57.888Z,116.50
2018-04-02T07:02:57.874Z,116.00
2018-04-02T07:03:57.880Z,115.90
2018-04-02T07:04:57.881Z,115.90
2018-04-02T07:05:57.884Z,115.90
2018-04-02T07:06:57.875Z,114.30
2018-04-02T07:07:57.882Z,114.80
2018-04-02T07:08:57.882Z,115.20
2018-04-02T07:09:57.883Z,116.40
2018-04-02T07:10:57.898Z,114.10
2018-04-02T07:11:57.877Z,114.80
2018-04-02T07:12:57.871Z,114.20
2018-04-02T07:13:57.876Z,114.20
2018-04-02T07:14:57.877Z,112.40
2018-04-02T07:15:57.884Z,109.60
2018-04-02T07:16:57.887Z,113.00
2018-04-02T07:17:57.877Z,111.20
2018-04-02T07:18:57.880Z,110.40
2018-04-02T07:19:57.885Z,109.00
2018-04-02T07:20:57.880Z,111.10
2018-04-02T07:21:57.885Z,110.00
2018-04-02T07:22:57.936Z,111.50
2018-04-02T07:23:57.878Z,110.00
2018-04-02T07:24:57.879Z,109.70
2018-04-02T07:25:57.882Z,110.00
2018-04-02T07:26:57.875Z,109.90
2018-04-02T07:27:57.891Z,112.80
2018-04-02T07:28:57.871Z,111.40
2018-04-02T07:29:57.874Z,111.30
2018-04-02T07:30:57.884Z,108.50
2018-04-02T07:31:57.889Z,109.30
2018-04-02T07:32:57.894Z,109.10
2018-04-02T07:33:57.874Z,112.00
2018-04-02T07:34:57.884Z,112.50
2018-04-02T07:35:57.888Z,113.40
2018-04-02T07:36:57.888Z,112.80
2018-04-02T07:37:57.886Z,109.60
2018-04-02T07:38:57.887Z,115.20
2018-04-02T07:39:57.892Z,113.50
2018-04-02T07:40:57.887Z,113.70
2018-04-02T07:41:57.892Z,108.70
2018-04-02T07:42:57.889Z,110.00
2018-04-02T07:43:57.900Z,109.20
2018-04-02T07:44:57.896Z,107.70
2018-04-02T07:45:57.897Z,109.50
2018-04-02T07:46:57.895Z,107.50
2018-04-02T07:47:57.896Z,104.70
2018-04-02T07:48:57.892Z,104.80
2018-04-02T07:49:57.893Z,100.10
2018-04-02T07:50:57.910Z,99.90
2018-04-02T07:51:57.906Z,96.20
2018-04-02T07:52:57.899Z,100.10
2018-04-02T07:53:57.904Z,97.20
2018-04-02T07:54:57.903Z,97.20
2018-04-02T07:55:58.692Z,95.60
2018-04-02T07:56:57.912Z,97.80
2018-04-02T07:57:57.917Z,100.60
2018-04-02T07:58:57.920Z,97.10
2018-04-02T07:59:57.934Z,96.10
2018-04-02T08:00:57.919Z,88.20
2018-04-02T08:01:57.925Z,91.40
2018-04-02T08:02:57.976Z,87.30
2018-04-02T08:03:57.921Z,87.10
2018-04-02T08:04:57.943Z,86.20
2018-04-02T08:05:57.944Z,84.10
2018-04-02T08:06:57.933Z,82.90
2018-04-02T08:07:57.935Z,80.60
2018-04-02T08:08:58.058Z,78.90
2018-04-02T08:09:57.951Z,82.70
2018-04-02T08:10:57.944Z,83.90
2018-04-02T08:11:57.939Z,81.00
2018-04-02T08:12:57.956Z,80.60
2018-04-02T08:13:57.959Z,76.60
2018-04-02T08:14:57.964Z,75.90
2018-04-02T08:15:57.962Z,79.20
2018-04-02T08:16:57.956Z,80.10
2018-04-02T08:17:57.970Z,76.90
2018-04-02T08:18:57.964Z,76.80
2018-04-02T08:19:57.974Z,77.20
2018-04-02T08:20:57.994Z,75.60
2018-04-02T08:21:58.695Z,75.90
2018-04-02T08:22:57.983Z,76.10
2018-04-02T08:23:57.984Z,72.10
2018-04-02T08:24:58.001Z,74.50
2018-04-02T08:25:57.981Z,72.00
2018-04-02T08:26:58.005Z,72.30
2018-04-02T08:27:57.989Z,71.20
2018-04-02T08:28:57.997Z,74.70
2018-04-02T08:29:58.005Z,75.10
2018-04-02T08:30:58.007Z,78.20
2018-04-02T08:31:58.004Z,79.50
2018-04-02T08:32:58.005Z,78.80
2018-04-02T08:33:58.023Z,79.00
2018-04-02T08:34:58.013Z,73.60
2018-04-02T08:35:58.012Z,77.30
2018-04-02T08:36:58.022Z,73.50
2018-04-02T08:37:58.028Z,74.40
2018-04-02T08:38:58.037Z,77.50
2018-04-02T08:39:58.031Z,75.60
2018-04-02T08:40:58.036Z,73.00
2018-04-02T08:41:58.036Z,74.60
2018-04-02T08:42:58.045Z,72.50
2018-04-02T08:43:58.040Z,69.80
2018-04-02T08:44:58.053Z,72.20
2018-04-02T08:45:58.059Z,67.10
2018-04-02T08:46:58.059Z,66.80
2018-04-02T08:47:58.073Z,64.30
2018-04-02T08:48:58.072Z,63.60
2018-04-02T08:49:58.075Z,64.90
2018-04-02T08:50:58.077Z,65.10
2018-04-02T08:51:58.073Z,68.50
2018-04-02T08:52:58.135Z,68.10
2018-04-02T08:53:58.096Z,69.40
2018-04-02T08:54:58.115Z,69.40
2018-04-02T08:55:58.100Z,68.60
2018-04-02T08:56:58.098Z,67.70
2018-04-02T08:57:58.102Z,64.60
2018-04-02T08:58:58.110Z,61.20
2018-04-02T08:59:58.099Z,60.10
2018-04-02T09:00:58.133Z,57.70
2018-04-02T09:01:58.117Z,58.70
2018-04-02T09:02:58.117Z,62.00
2018-04-02T09:03:58.124Z,63.00
2018-04-02T09:04:58.132Z,64.00
2018-04-02T09:05:58.138Z,64.30
2018-04-02T09:06:58.145Z,60.40
2018-04-02T09:07:58.139Z,64.80
2018-04-02T09:08:58.141Z,64.90
2018-04-02T09:09:58.142Z,63.70
2018-04-02T09:10:58.156Z,59.00
2018-04-02T09:11:58.148Z,56.00
2018-04-02T09:12:58.149Z,55.40
2018-04-02T09:13:58.161Z,54.90
2018-04-02T09:14:58.153Z,54.60
2018-04-02T09:15:58.157Z,52.70
2018-04-02T09:16:58.168Z,50.80
2018-04-02T09:17:58.171Z,53.10
2018-04-02T09:18:58.174Z,49.90
2018-04-02T09:19:58.187Z,50.30
2018-04-02T09:20:58.177Z,47.90
2018-04-02T09:21:58.184Z,51.00
2018-04-02T09:22:58.196Z,52.80
2018-04-02T09:23:58.177Z,49.20
2018-04-02T09:24:58.192Z,51.40
2018-04-02T09:25:58.185Z,52.40
2018-04-02T09:26:58.210Z,53.90
2018-04-02T09:27:58.190Z,50.50
2018-04-02T09:28:58.202Z,51.00
2018-04-02T09:29:58.202Z,53.70
2018-04-02T09:30:58.255Z,53.90
2018-04-02T09:31:58.220Z,53.20
2018-04-02T09:32:58.216Z,52.10
2018-04-02T09:33:58.217Z,48.50
2018-04-02T09:34:58.218Z,48.40
2018-04-02T09:35:58.236Z,49.80
2018-04-02T09:36:58.245Z,46.10
2018-04-02T09:37:58.231Z,47.20
2018-04-02T09:38:58.237Z,47.10
2018-04-02T09:39:58.249Z,47.10
2018-04-02T09:40:58.265Z,46.60
2018-04-02T09:41:58.250Z,44.70
2018-04-02T09:42:58.246Z,45.40
2018-04-02T09:43:58.255Z,46.20
2018-04-02T09:44:58.271Z,47.30
2018-04-02T09:45:58.256Z,43.70
2018-04-02T09:46:58.264Z,45.60
2018-04-02T09:47:58.271Z,43.20
2018-04-02T09:48:58.278Z,44.50
2018-04-02T09:49:58.275Z,42.90
2018-04-02T09:50:58.281Z,42.50
2018-04-02T09:51:58.281Z,39.00
2018-04-02T09:52:58.282Z,40.60
2018-04-02T09:53:58.339Z,40.20
2018-04-02T09:54:58.313Z,42.20
2018-04-02T09:55:58.299Z,43.10
2018-04-02T09:56:58.309Z,41.30
2018-04-02T09:57:58.306Z,42.00
2018-04-02T09:58:58.309Z,42.20
2018-04-02T09:59:58.307Z,41.50
2018-04-02T10:00:58.324Z,41.50
2018-04-02T10:01:58.339Z,42.60
2018-04-02T10:02:58.321Z,39.60
2018-04-02T10:03:58.327Z,35.80
2018-04-02T10:04:58.373Z,37.00
2018-04-02T10:05:58.336Z,37.60
2018-04-02T10:06:58.336Z,35.30
2018-04-02T10:07:58.332Z,37.10
2018-04-02T10:08:58.331Z,38.00
2018-04-02T10:09:58.350Z,38.90
2018-04-02T10:10:58.345Z,38.60
2018-04-02T10:11:58.370Z,40.50
2018-04-02T10:12:58.352Z,38.40
2018-04-02T10:13:58.348Z,37.50
2018-04-02T10:14:58.360Z,37.70
2018-04-02T10:15:58.370Z,38.70
2018-04-02T10:16:58.362Z,37.20
2018-04-02T10:17:58.364Z,36.30
2018-04-02T10:18:58.373Z,37.20
2018-04-02T10:19:58.405Z,36.90
2018-04-02T10:20:58.370Z,36.90
2018-04-02T10:21:58.380Z,38.20
2018-04-02T10:22:58.380Z,36.80
2018-04-02T10:23:58.458Z,37.40
2018-04-02T10:24:58.383Z,37.90
2018-04-02T10:25:58.401Z,38.40
2018-04-02T10:26:58.401Z,37.50
2018-04-02T10:27:58.393Z,39.40
2018-04-02T10:28:58.418Z,39.20
2018-04-02T10:29:58.449Z,38.90
2018-04-02T10:30:58.407Z,37.00
2018-04-02T10:31:58.411Z,36.30
2018-04-02T10:32:58.425Z,36.30
2018-04-02T10:33:58.417Z,35.30
2018-04-02T10:34:58.490Z,36.60
2018-04-02T10:35:58.431Z,37.70
2018-04-02T10:36:58.425Z,37.10
2018-04-02T10:37:58.438Z,35.40
2018-04-02T10:38:58.431Z,38.20
2018-04-02T10:39:58.445Z,36.80
2018-04-02T10:40:58.449Z,36.80
2018-04-02T10:41:58.487Z,35.60
2018-04-02T10:42:58.445Z,35.70
2018-04-02T10:43:58.466Z,35.80
2018-04-02T10:44:58.538Z,32.70
2018-04-02T10:45:58.461Z,34.10
2018-04-02T10:46:58.476Z,33.30
2018-04-02T10:47:58.470Z,34.80
2018-04-02T10:48:58.477Z,35.40
2018-04-02T10:49:58.487Z,35.70
2018-04-02T10:50:58.489Z,33.70
2018-04-02T10:51:58.490Z,35.10
2018-04-02T10:52:58.490Z,35.00
2018-04-02T10:53:58.496Z,35.70
2018-04-02T10:54:58.515Z,36.70
2018-04-02T10:55:58.537Z,34.20
2018-04-02T10:56:58.526Z,33.20
2018-04-02T10:57:59.268Z,34.10
2018-04-02T10:58:58.531Z,33.00
2018-04-02T10:59:58.547Z,32.30
2018-04-02T11:00:58.553Z,32.80
2018-04-02T11:01:58.548Z,33.20
2018-04-02T11:02:58.560Z,31.90
2018-04-02T11:03:58.560Z,31.00
2018-04-02T11:04:58.577Z,29.80
2018-04-02T11:05:58.577Z,29.80
2018-04-02T11:06:58.582Z,30.20
2018-04-02T11:07:58.590Z,28.80
2018-04-02T11:08:58.592Z,28.30
2018-04-02T11:09:58.605Z,29.70
2018-04-02T11:10:58.611Z,30.00
2018-04-02T11:11:58.617Z,29.20
2018-04-02T11:12:58.646Z,30.60
2018-04-02T11:13:58.636Z,29.60
2018-04-02T11:14:58.642Z,29.70
2018-04-02T11:15:58.644Z,29.90
2018-04-02T11:16:58.649Z,29.40
2018-04-02T11:17:58.678Z,28.90
2018-04-02T11:18:58.668Z,29.70
2018-04-02T11:19:58.671Z,29.60
2018-04-02T11:20:58.673Z,29.90
2018-04-02T11:21:58.700Z,27.80
2018-04-02T11:22:58.679Z,26.80
2018-04-02T11:23:58.711Z,26.50
2018-04-02T11:24:58.707Z,27.20
2018-04-02T11:25:58.723Z,26.80
2018-04-02T11:26:58.716Z,27.90
2018-04-02T11:27:58.721Z,27.60
2018-04-02T11:28:58.734Z,26.40
2018-04-02T11:29:58.729Z,27.20
2018-04-02T11:30:58.728Z,26.00
2018-04-02T11:31:58.736Z,27.50
2018-04-02T11:32:58.755Z,27.30
2018-04-02T11:33:58.761Z,27.10
2018-04-02T11:34:58.763Z,27.80
2018-04-02T11:35:58.769Z,28.00
2018-04-02T11:36:58.766Z,27.90
2018-04-02T11:37:58.766Z,29.30
2018-04-02T11:38:58.776Z,29.40
2018-04-02T11:39:58.788Z,28.40
2018-04-02T11:40:58.787Z,29.00
2018-04-02T11:41:58.796Z,28.40
2018-04-02T11:42:58.815Z,28.10
2018-04-02T11:43:58.801Z,28.70
2018-04-02T11:44:58.802Z,28.30
2018-04-02T11:45:58.813Z,27.90
2018-04-02T11:46:58.813Z,28.60
2018-04-02T11:47:58.800Z,28.10
2018-04-02T11:48:58.916Z,27.70
2018-04-02T11:49:58.811Z,28.80
2018-04-02T11:50:58.819Z,28.60
2018-04-02T11:51:58.826Z,28.50
2018-04-02T11:52:58.827Z,27.50
2018-04-02T11:53:58.859Z,26.70
2018-04-02T11:54:58.849Z,27.30
2018-04-02T11:55:58.842Z,26.00
2018-04-02T11:56:58.842Z,23.80
2018-04-02T11:57:58.835Z,21.90
2018-04-02T11:58:58.847Z,17.70
2018-04-02T11:59:58.840Z,17.50
2018-04-02T12:00:58.856Z,19.00
2018-04-02T12:01:58.864Z,19.00
2018-04-02T12:02:58.866Z,20.30
2018-04-02T12:03:58.881Z,21.50
2018-04-02T12:04:58.874Z,21.40
2018-04-02T12:05:58.870Z,20.50
2018-04-02T12:06:58.946Z,18.50
2018-04-02T12:07:58.868Z,17.50
2018-04-02T12:08:58.880Z,15.30
2018-04-02T12:09:58.889Z,16.90
2018-04-02T12:10:58.882Z,14.90
2018-04-02T12:11:58.917Z,16.00
2018-04-02T12:12:58.893Z,15.80
2018-04-02T12:13:58.934Z,14.90
2018-04-02T12:14:58.895Z,16.10
2018-04-02T12:15:58.900Z,13.80
2018-04-02T12:16:58.920Z,12.70
2018-04-02T12:17:58.902Z,11.00
2018-04-02T12:18:58.904Z,9.30
2018-04-02T12:19:58.917Z,9.70
2018-04-02T12:20:58.926Z,8.50
2018-04-02T12:21:58.908Z,8.20
2018-04-02T12:22:58.932Z,7.80
2018-04-02T12:23:58.925Z,8.70
2018-04-02T12:24:58.937Z,7.80
2018-04-02T12:25:58.933Z,8.20
2018-04-02T12:26:58.932Z,7.50
2018-04-02T12:27:58.933Z,7.40
2018-04-02T12:28:58.938Z,7.30
2018-04-02T12:29:58.946Z,6.80
2018-04-02T12:30:58.959Z,7.10
2018-04-02T12:31:58.951Z,5.90
2018-04-02T12:32:58.965Z,6.40
2018-04-02T12:33:58.955Z,6.40
2018-04-02T12:34:58.962Z,6.40
2018-04-02T12:35:58.951Z,6.70
2018-04-02T12:36:58.969Z,7.60
2018-04-02T12:37:58.968Z,7.30
2018-04-02T12:38:58.967Z,8.10